createdAt,value
2018-07-12T00:00:01.258Z,2.20
2018-07-12T00:02:28.962Z,1.60
2018-07-12T00:04:56.626Z,1.85
2018-07-12T00:07:24.337Z,1.75
2018-07-12T00:09:52.055Z,2.00
2018-07-12T00:12:19.711Z,2.20
2018-07-12T00:14:47.429Z,2.20
2018-07-12T00:17:15.119Z,1.98
2018-07-12T00:19:42.826Z,1.90
2018-07-12T00:22:10.536Z,1.98
2018-07-12T00:24:38.221Z,1.82
2018-07-12T00:27:05.949Z,1.70
2018-07-12T00:29:33.630Z,2.27
2018-07-12T00:32:01.409Z,2.25
2018-07-12T00:34:29.078Z,2.20
2018-07-12T00:36:56.799Z,2.15
2018-07-12T00:39:24.525Z,2.17
2018-07-12T00:41:52.216Z,1.80
2018-07-12T00:44:19.913Z,2.17
2018-07-12T00:46:47.596Z,2.25
2018-07-12T00:49:15.349Z,2.05
2018-07-12T00:51:43.047Z,2.05
2018-07-12T00:54:10.705Z,2.15
2018-07-12T00:56:38.364Z,2.02
2018-07-12T00:59:06.032Z,2.47
2018-07-12T01:01:33.733Z,2.58
2018-07-12T01:04:01.774Z,2.00
2018-07-12T01:06:29.457Z,2.12
2018-07-12T01:08:57.408Z,2.45
2018-07-12T01:11:25.133Z,2.00
2018-07-12T01:13:52.856Z,2.17
2018-07-12T01:16:20.608Z,2.30
2018-07-12T01:18:48.336Z,2.33
2018-07-12T01:21:16.304Z,2.27
2018-07-12T01:23:43.978Z,2.37
2018-07-12T01:26:11.670Z,2.55
2018-07-12T01:28:39.419Z,2.60
2018-07-12T01:31:07.095Z,2.58
2018-07-12T01:33:34.911Z,2.55
2018-07-12T01:36:02.642Z,2.33
2018-07-12T01:38:30.282Z,2.15
2018-07-12T01:40:57.981Z,2.05
2018-07-12T01:43:25.676Z,2.05
2018-07-12T01:45:53.384Z,2.60
2018-07-12T01:48:21.328Z,2.70
2018-07-12T01:50:49.018Z,2.50
2018-07-12T01:53:16.696Z,2.50
2018-07-12T01:55:44.457Z,2.50
2018-07-12T01:58:12.322Z,2.45
2018-07-12T02:00:40.302Z,2.35
2018-07-12T02:03:07.974Z,3.00
2018-07-12T02:05:35.679Z,2.80
2018-07-12T02:08:03.333Z,3.27
2018-07-12T02:10:31.043Z,2.72
2018-07-12T02:12:58.770Z,2.50
2018-07-12T02:15:26.487Z,2.55
2018-07-12T02:17:54.220Z,2.47
2018-07-12T02:20:21.956Z,2.75
2018-07-12T02:22:49.698Z,2.87
2018-07-12T02:25:17.588Z,2.25
2018-07-12T02:27:45.325Z,2.47
2018-07-12T02:30:13.009Z,2.12
2018-07-12T02:32:40.795Z,2.30
2018-07-12T02:35:08.548Z,2.05
2018-07-12T02:37:36.227Z,2.67
2018-07-12T02:40:03.959Z,2.10
2018-07-12T02:42:31.653Z,2.33
2018-07-12T02:44:59.369Z,2.45
2018-07-12T02:47:27.063Z,2.50
2018-07-12T02:49:54.753Z,2.37
2018-07-12T02:52:22.677Z,2.90
2018-07-12T02:54:50.401Z,2.58
2018-07-12T02:57:18.112Z,2.75
2018-07-12T02:59:45.801Z,2.00
2018-07-12T03:02:13.488Z,2.42
2018-07-12T03:04:41.178Z,2.02
2018-07-12T03:07:08.836Z,2.62
2018-07-12T03:09:36.513Z,2.58
2018-07-12T03:12:04.198Z,2.50
2018-07-12T03:14:31.860Z,2.40
2018-07-12T03:16:59.575Z,2.42
2018-07-12T03:19:27.282Z,2.90
2018-07-12T03:21:55.021Z,2.60
2018-07-12T03:24:22.702Z,2.75
2018-07-12T03:26:50.448Z,2.67
2018-07-12T03:29:18.118Z,2.70
2018-07-12T03:31:45.833Z,2.85
2018-07-12T03:34:13.506Z,2.98
2018-07-12T03:36:41.259Z,2.50
2018-07-12T03:39:08.946Z,2.80
2018-07-12T03:41:36.640Z,2.77
2018-07-12T03:44:04.686Z,2.67
2018-07-12T03:46:32.392Z,3.15
2018-07-12T03:49:00.097Z,2.60
2018-07-12T03:51:27.767Z,2.58
2018-07-12T03:53:55.499Z,2.92
2018-07-12T03:56:23.172Z,2.90
2018-07-12T03:58:50.865Z,3.08
2018-07-12T04:01:18.607Z,2.85
2018-07-12T04:03:46.271Z,2.87
2018-07-12T04:06:13.970Z,2.85
2018-07-12T04:08:41.696Z,3.25
2018-07-12T04:11:09.405Z,3.20
2018-07-12T04:13:37.195Z,2.50
2018-07-12T04:16:05.184Z,3.05
2018-07-12T04:18:32.878Z,3.33
2018-07-12T04:21:00.563Z,2.92
2018-07-12T04:23:28.287Z,3.08
2018-07-12T04:25:55.989Z,3.08
2018-07-12T04:28:23.769Z,2.80
2018-07-12T04:30:51.484Z,3.50
2018-07-12T04:33:19.165Z,2.98
2018-07-12T04:35:46.873Z,2.80
2018-07-12T04:38:14.589Z,3.17
2018-07-12T04:40:42.283Z,3.20
2018-07-12T04:43:09.966Z,3.05
2018-07-12T04:45:37.740Z,3.02
2018-07-12T04:48:06.144Z,3.40
2018-07-12T04:50:33.844Z,3.42
2018-07-12T04:53:01.502Z,2.98
2018-07-12T04:55:29.188Z,2.95
2018-07-12T04:57:56.855Z,3.20
2018-07-12T05:00:24.593Z,3.85
2018-07-12T05:02:52.321Z,3.20
2018-07-12T05:05:20.008Z,3.40
2018-07-12T05:07:47.716Z,3.72
2018-07-12T05:10:15.403Z,3.70
2018-07-12T05:12:43.099Z,3.77
2018-07-12T05:15:10.773Z,3.77
2018-07-12T05:17:38.439Z,4.00
2018-07-12T05:20:06.479Z,3.55
2018-07-12T05:22:34.157Z,3.45
2018-07-12T05:25:01.915Z,3.90
2018-07-12T05:27:29.585Z,3.60
2018-07-12T05:29:57.287Z,3.47
2018-07-12T05:32:25.006Z,4.05
2018-07-12T05:34:52.699Z,3.75
2018-07-12T05:37:22.110Z,3.62
2018-07-12T05:39:51.490Z,3.60
2018-07-12T05:42:20.919Z,3.77
2018-07-12T05:44:50.336Z,4.30
2018-07-12T05:47:19.807Z,3.65
2018-07-12T05:49:49.226Z,4.00
2018-07-12T05:52:18.653Z,4.45
2018-07-12T05:54:48.101Z,4.00
2018-07-12T05:57:17.513Z,5.03
2018-07-12T05:59:46.926Z,4.67
2018-07-12T06:02:21.861Z,4.30
2018-07-12T06:04:51.446Z,4.85
2018-07-12T06:07:26.113Z,4.20
2018-07-12T06:09:56.360Z,4.65
2018-07-12T06:12:26.742Z,5.37
2018-07-12T06:14:56.188Z,4.53
2018-07-12T06:17:25.598Z,4.28
2018-07-12T06:19:55.172Z,4.00
2018-07-12T06:22:24.592Z,4.05
2018-07-12T06:24:54.089Z,4.20
2018-07-12T06:27:23.452Z,4.40
2018-07-12T06:29:52.810Z,5.00
2018-07-12T06:32:22.220Z,4.30
2018-07-12T06:34:51.557Z,4.87
2018-07-12T06:37:20.924Z,4.00
2018-07-12T06:39:50.337Z,4.30
2018-07-12T06:42:19.726Z,4.12
2018-07-12T06:44:49.205Z,3.98
2018-07-12T06:47:18.624Z,4.03
2018-07-12T06:49:48.025Z,4.72
2018-07-12T06:52:17.399Z,4.20
2018-07-12T06:54:47.296Z,4.42
2018-07-12T06:57:16.611Z,4.47
2018-07-12T06:59:45.982Z,4.20
2018-07-12T07:02:15.512Z,4.70
2018-07-12T07:04:45.204Z,4.35
2018-07-12T07:07:14.785Z,4.30
2018-07-12T07:09:44.329Z,4.05
2018-07-12T07:12:13.728Z,4.33
2018-07-12T07:14:43.130Z,4.47
2018-07-12T07:17:12.538Z,4.15
2018-07-12T07:19:41.903Z,4.40
2018-07-12T07:22:11.369Z,4.17
2018-07-12T07:24:40.758Z,4.80
2018-07-12T07:27:10.149Z,4.28
2018-07-12T07:29:39.534Z,4.25
2018-07-12T07:32:08.921Z,4.92
2018-07-12T07:34:38.325Z,4.30
2018-07-12T07:37:07.713Z,4.45
2018-07-12T07:39:37.065Z,4.60
2018-07-12T07:42:06.516Z,5.00
2018-07-12T07:44:35.888Z,4.78
2018-07-12T07:47:05.273Z,5.37
2018-07-12T07:49:34.661Z,5.15
2018-07-12T07:52:04.093Z,5.00
2018-07-12T07:54:33.644Z,4.70
2018-07-12T07:57:03.023Z,4.92
2018-07-12T07:59:32.453Z,5.22
2018-07-12T08:02:01.829Z,5.90
2018-07-12T08:04:31.181Z,5.83
2018-07-12T08:07:00.573Z,5.42
2018-07-12T08:09:29.979Z,4.92
2018-07-12T08:11:59.484Z,4.65
2018-07-12T08:14:28.844Z,5.20
2018-07-12T08:16:58.203Z,5.47
2018-07-12T08:19:27.589Z,4.85
2018-07-12T08:22:07.508Z,4.72
2018-07-12T08:24:37.075Z,5.65
2018-07-12T08:27:06.841Z,5.22
2018-07-12T08:29:36.278Z,5.55
2018-07-12T08:32:05.969Z,5.58
2018-07-12T08:34:35.420Z,4.58
2018-07-12T08:37:04.843Z,5.72
2018-07-12T08:39:34.227Z,5.25
2018-07-12T08:42:03.610Z,5.92
2018-07-12T08:44:32.996Z,5.60
2018-07-12T08:47:02.493Z,5.35
2018-07-12T08:49:31.837Z,6.25
2018-07-12T08:52:01.202Z,6.42
2018-07-12T08:54:30.270Z,5.78
2018-07-12T08:56:59.670Z,5.92
2018-07-12T08:59:29.080Z,5.67
2018-07-12T09:01:58.516Z,6.67
2018-07-12T09:04:27.909Z,5.20
2018-07-12T09:06:57.256Z,5.12
2018-07-12T09:09:26.635Z,4.75
2018-07-12T09:11:56.022Z,4.42
2018-07-12T09:14:26.146Z,5.05
2018-07-12T09:16:55.509Z,6.50
2018-07-12T09:19:24.881Z,5.15
2018-07-12T09:21:54.295Z,5.30
2018-07-12T09:24:23.779Z,5.47
2018-07-12T09:26:53.265Z,4.47
2018-07-12T09:29:22.728Z,5.37
2018-07-12T09:31:52.128Z,5.53
2018-07-12T09:34:21.558Z,5.10
2018-07-12T09:36:50.985Z,6.17
2018-07-12T09:39:20.385Z,5.90
2018-07-12T09:41:49.809Z,5.50
2018-07-12T09:44:19.167Z,5.08
2018-07-12T09:46:48.592Z,4.42
2018-07-12T09:49:18.140Z,4.95
2018-07-12T09:51:47.333Z,5.35
2018-07-12T09:54:17.569Z,4.80
2018-07-12T09:57:03.712Z,5.70
2018-07-12T09:59:33.098Z,4.50
2018-07-12T10:02:07.850Z,5.58
2018-07-12T10:04:37.262Z,4.90
2018-07-12T10:07:11.969Z,4.50
2018-07-12T10:09:46.504Z,5.95
2018-07-12T10:12:20.990Z,5.12
2018-07-12T10:14:51.177Z,4.97
2018-07-12T10:17:25.766Z,5.35
2018-07-12T10:19:55.248Z,5.30
2018-07-12T10:22:24.873Z,4.60
2018-07-12T10:24:54.282Z,5.42
2018-07-12T10:27:23.667Z,4.62
2018-07-12T10:29:53.137Z,4.97
2018-07-12T10:32:22.417Z,5.08
2018-07-12T10:34:51.876Z,5.83
2018-07-12T10:37:21.212Z,4.90
2018-07-12T10:39:50.637Z,5.28
2018-07-12T10:42:20.012Z,5.90
2018-07-12T10:44:49.527Z,5.87
2018-07-12T10:47:18.899Z,5.90
2018-07-12T10:49:48.821Z,6.28
2018-07-12T10:52:18.316Z,5.67
2018-07-12T10:54:47.981Z,5.33
2018-07-12T10:57:17.057Z,5.35
2018-07-12T10:59:46.413Z,5.20
2018-07-12T11:02:15.790Z,6.37
2018-07-12T11:04:45.201Z,5.90
2018-07-12T11:07:14.556Z,5.95
2018-07-12T11:09:43.933Z,5.83
2018-07-12T11:12:13.366Z,4.85
2018-07-12T11:14:42.756Z,6.05
2018-07-12T11:17:12.165Z,7.42
2018-07-12T11:19:41.637Z,6.42
2018-07-12T11:22:11.031Z,5.42
2018-07-12T11:24:41.767Z,6.10
2018-07-12T11:27:11.206Z,7.80
2018-07-12T11:29:53.317Z,6.47
2018-07-12T11:32:22.660Z,7.33
2018-07-12T11:34:52.257Z,7.80
2018-07-12T11:37:24.540Z,8.10
2018-07-12T11:39:53.913Z,8.20
2018-07-12T11:42:23.432Z,8.03
2018-07-12T11:44:52.924Z,8.45
2018-07-12T11:47:22.321Z,9.08
2018-07-12T11:49:51.825Z,8.80
2018-07-12T11:52:21.232Z,8.80
2018-07-12T11:54:50.955Z,10.60
2018-07-12T11:57:20.286Z,10.90
2018-07-12T11:59:49.694Z,11.38
2018-07-12T12:02:19.111Z,10.53
2018-07-12T12:04:48.502Z,7.12
2018-07-12T12:07:17.891Z,5.37
2018-07-12T12:09:47.292Z,5.28
2018-07-12T12:12:16.784Z,6.75
2018-07-12T12:14:46.215Z,6.15
2018-07-12T12:17:15.713Z,8.48
2018-07-12T12:19:45.098Z,7.58
2018-07-12T12:22:14.487Z,7.58
2018-07-12T12:24:43.866Z,6.97
2018-07-12T12:27:13.242Z,8.60
2018-07-12T12:29:42.565Z,7.40
2018-07-12T12:32:11.915Z,8.18
2018-07-12T12:34:41.352Z,8.40
2018-07-12T12:37:10.824Z,8.05
2018-07-12T12:39:40.219Z,8.03
2018-07-12T12:42:09.612Z,9.73
2018-07-12T12:44:38.982Z,8.75
2018-07-12T12:47:08.309Z,8.25
2018-07-12T12:49:37.696Z,7.40
2018-07-12T12:52:07.140Z,6.17
2018-07-12T12:54:36.535Z,5.30
2018-07-12T12:57:06.005Z,4.70
2018-07-12T12:59:35.366Z,4.15
2018-07-12T13:02:04.862Z,5.15
2018-07-12T13:04:34.240Z,3.92
2018-07-12T13:07:03.657Z,3.72
2018-07-12T13:09:33.047Z,4.40
2018-07-12T13:12:02.448Z,4.35
2018-07-12T13:14:31.924Z,4.25
2018-07-12T13:17:01.248Z,4.40
2018-07-12T13:19:30.606Z,3.85
2018-07-12T13:22:00.337Z,3.62
2018-07-12T13:24:29.748Z,4.42
2018-07-12T13:26:59.264Z,3.90
2018-07-12T13:29:28.689Z,4.45
2018-07-12T13:31:58.189Z,3.90
2018-07-12T13:34:27.662Z,4.17
2018-07-12T13:36:57.201Z,3.77
2018-07-12T13:39:26.709Z,4.47
2018-07-12T13:41:56.115Z,3.85
2018-07-12T13:44:26.259Z,3.50
2018-07-12T13:46:56.162Z,3.62
2018-07-12T13:49:25.548Z,3.47
2018-07-12T13:51:54.989Z,4.17
2018-07-12T13:54:24.454Z,3.50
2018-07-12T13:56:54.530Z,3.35
2018-07-12T13:59:23.972Z,4.03
2018-07-12T14:01:53.478Z,3.08
2018-07-12T14:04:22.865Z,3.62
2018-07-12T14:06:52.353Z,4.03
2018-07-12T14:09:21.761Z,3.75
2018-07-12T14:11:51.269Z,4.05
2018-07-12T14:14:20.690Z,4.30
2018-07-12T14:16:50.098Z,4.20
2018-07-12T14:19:19.510Z,4.05
2018-07-12T14:21:48.997Z,4.17
2018-07-12T14:24:18.681Z,4.20
2018-07-12T14:26:48.900Z,4.92
2018-07-12T14:29:18.329Z,4.47
2018-07-12T14:31:47.727Z,4.00
2018-07-12T14:34:17.234Z,3.95
2018-07-12T14:36:46.803Z,3.85
2018-07-12T14:39:16.243Z,4.20
2018-07-12T14:41:45.686Z,3.87
2018-07-12T14:44:15.221Z,4.53
2018-07-12T14:46:44.749Z,3.58
2018-07-12T14:49:14.296Z,4.17
2018-07-12T14:51:43.859Z,3.80
2018-07-12T14:54:13.453Z,3.90
2018-07-12T14:56:43.058Z,3.33
2018-07-12T14:59:12.518Z,2.85
2018-07-12T15:01:41.957Z,2.95
2018-07-12T15:04:11.385Z,2.80
2018-07-12T15:09:13.501Z,2.87
2018-07-12T15:11:43.992Z,2.30
2018-07-12T15:14:13.344Z,2.33
2018-07-12T15:16:42.780Z,2.33
2018-07-12T15:19:13.303Z,2.45
2018-07-12T15:21:42.697Z,2.50
2018-07-12T15:24:12.225Z,2.47
2018-07-12T15:26:41.744Z,2.52
2018-07-12T15:29:11.341Z,3.35
2018-07-12T15:31:40.957Z,2.80
2018-07-12T15:34:10.470Z,2.87
2018-07-12T15:36:40.053Z,2.87
2018-07-12T15:39:09.545Z,3.15
2018-07-12T15:41:39.483Z,3.02
2018-07-12T15:44:08.791Z,3.25
2018-07-12T15:46:40.554Z,2.70
2018-07-12T15:49:10.142Z,2.70
2018-07-12T15:51:39.540Z,2.70
2018-07-12T15:54:08.999Z,2.60
2018-07-12T15:56:38.441Z,2.62
2018-07-12T15:59:07.941Z,2.40
2018-07-12T16:01:37.535Z,2.30
2018-07-12T16:04:07.055Z,2.52
2018-07-12T16:06:36.493Z,2.30
2018-07-12T16:09:08.547Z,2.30
2018-07-12T16:11:38.184Z,2.27
2018-07-12T16:14:07.754Z,2.30
2018-07-12T16:16:37.249Z,2.30
2018-07-12T16:19:06.781Z,2.27
2018-07-12T16:21:36.177Z,1.90
2018-07-12T16:24:06.037Z,2.27
2018-07-12T16:26:35.515Z,2.02
2018-07-12T16:29:05.062Z,2.10
2018-07-12T16:31:34.169Z,2.02
2018-07-12T16:34:03.658Z,1.98
2018-07-12T16:36:33.010Z,2.10
2018-07-12T16:39:02.395Z,1.95
2018-07-12T16:41:31.916Z,2.02
2018-07-12T16:44:01.912Z,1.77
2018-07-12T16:46:31.444Z,1.75
2018-07-12T16:49:00.829Z,1.72
2018-07-12T16:51:30.240Z,1.70
2018-07-12T16:53:59.600Z,1.60
2018-07-12T16:56:28.969Z,2.20
2018-07-12T16:58:58.310Z,2.15
2018-07-12T17:01:27.686Z,1.92
2018-07-12T17:03:57.064Z,1.90
2018-07-12T17:06:26.498Z,2.08
2018-07-12T17:08:55.968Z,2.20
2018-07-12T17:11:25.666Z,2.05
2018-07-12T17:13:55.219Z,1.85
2018-07-12T17:16:24.264Z,1.92
2018-07-12T17:18:53.693Z,2.00
2018-07-12T17:21:23.014Z,2.20
2018-07-12T17:23:52.499Z,1.77
2018-07-12T17:26:22.136Z,1.87
2018-07-12T17:28:51.594Z,2.30
2018-07-12T17:31:21.013Z,2.72
2018-07-12T17:33:50.408Z,2.50
2018-07-12T17:36:19.929Z,2.25
2018-07-12T17:38:49.341Z,2.20
2018-07-12T17:41:18.768Z,1.82
2018-07-12T17:43:48.215Z,2.40
2018-07-12T17:46:17.663Z,2.35
2018-07-12T17:48:48.004Z,2.12
2018-07-12T17:51:17.486Z,2.40
2018-07-12T17:53:46.869Z,2.40
2018-07-12T17:56:16.462Z,2.10
2018-07-12T17:58:46.753Z,2.27
2018-07-12T18:01:16.116Z,2.50
2018-07-12T18:03:46.121Z,2.50
2018-07-12T18:06:15.568Z,1.65
2018-07-12T18:08:45.095Z,3.00
2018-07-12T18:11:14.508Z,2.60
2018-07-12T18:13:44.038Z,2.65
2018-07-12T18:16:13.125Z,2.55
2018-07-12T18:18:42.565Z,3.15
2018-07-12T18:21:12.012Z,2.40
2018-07-12T18:23:41.517Z,2.75
2018-07-12T18:26:11.171Z,2.42
2018-07-12T18:28:40.749Z,2.80
2018-07-12T18:31:10.056Z,2.83
2018-07-12T18:33:39.441Z,3.35
2018-07-12T18:36:08.861Z,2.72
2018-07-12T18:38:38.241Z,2.90
2018-07-12T18:41:08.801Z,3.00
2018-07-12T18:43:38.393Z,2.95
2018-07-12T18:46:07.929Z,3.33
2018-07-12T18:48:37.649Z,3.30
2018-07-12T18:51:07.522Z,3.45
2018-07-12T18:53:37.154Z,3.17
2018-07-12T18:56:06.575Z,3.70
2018-07-12T18:58:36.164Z,3.70
2018-07-12T19:01:05.596Z,3.37
2018-07-12T19:03:35.263Z,3.50
2018-07-12T19:06:05.337Z,3.08
2018-07-12T19:08:34.760Z,3.58
2018-07-12T19:11:04.130Z,3.15
2018-07-12T19:13:33.874Z,3.98
2018-07-12T19:16:03.578Z,3.35
2018-07-12T19:18:33.136Z,3.40
2018-07-12T19:21:02.573Z,3.55
2018-07-12T19:23:32.017Z,4.08
2018-07-12T19:26:01.398Z,3.08
2018-07-12T19:28:30.834Z,3.70
2018-07-12T19:31:00.402Z,3.55
2018-07-12T19:33:30.133Z,3.40
2018-07-12T19:35:59.531Z,3.37
2018-07-12T19:38:29.178Z,3.72
2018-07-12T19:40:59.047Z,3.47
2018-07-12T19:43:28.465Z,3.55
2018-07-12T19:45:57.833Z,4.35
2018-07-12T19:48:27.199Z,3.52
2018-07-12T19:50:56.681Z,3.90
2018-07-12T19:53:26.205Z,2.90
2018-07-12T19:55:55.657Z,3.47
2018-07-12T19:58:25.122Z,3.45
2018-07-12T20:00:54.712Z,3.42
2018-07-12T20:03:24.405Z,3.27
2018-07-12T20:05:53.972Z,3.62
2018-07-12T20:08:23.365Z,3.45
2018-07-12T20:10:52.721Z,4.75
2018-07-12T20:13:22.256Z,4.70
2018-07-12T20:15:51.831Z,4.28
2018-07-12T20:18:21.793Z,4.58
2018-07-12T20:20:51.396Z,4.33
2018-07-12T20:23:21.765Z,4.60
2018-07-12T20:25:51.264Z,4.25
2018-07-12T20:28:20.657Z,4.12
2018-07-12T20:30:50.476Z,3.70
2018-07-12T20:33:19.968Z,3.45
2018-07-12T20:35:49.479Z,3.92
2018-07-12T20:38:19.007Z,3.50
2018-07-12T20:40:48.611Z,3.85
2018-07-12T20:43:20.921Z,3.37
2018-07-12T20:45:50.329Z,3.25
2018-07-12T20:48:19.764Z,2.77
2018-07-12T20:50:49.144Z,3.15
2018-07-12T20:53:18.607Z,2.87
2018-07-12T20:55:48.029Z,3.08
2018-07-12T20:58:17.511Z,3.40
2018-07-12T21:00:46.936Z,2.67
2018-07-12T21:03:16.354Z,4.12
2018-07-12T21:05:45.859Z,5.05
2018-07-12T21:08:15.269Z,4.25
2018-07-12T21:10:44.763Z,4.28
2018-07-12T21:13:14.150Z,5.12
2018-07-12T21:15:43.695Z,4.97
2018-07-12T21:18:13.544Z,4.55
2018-07-12T21:20:43.058Z,4.62
2018-07-12T21:23:12.412Z,4.00
2018-07-12T21:25:41.809Z,4.08
2018-07-12T21:28:11.238Z,4.92
2018-07-12T21:30:40.571Z,4.03
2018-07-12T21:33:10.162Z,3.55
2018-07-12T21:35:39.482Z,4.03
2018-07-12T21:38:10.318Z,3.80
2018-07-12T21:40:40.320Z,3.60
2018-07-12T21:43:09.705Z,4.00
2018-07-12T21:45:39.275Z,3.92
2018-07-12T21:48:08.649Z,3.50
2018-07-12T21:50:38.056Z,3.42
2018-07-12T21:53:08.098Z,3.00
2018-07-12T21:55:37.876Z,3.25
2018-07-12T21:58:07.374Z,2.92
2018-07-12T22:00:36.861Z,2.83
2018-07-12T22:03:06.209Z,3.05
2018-07-12T22:05:35.705Z,2.12
2018-07-12T22:08:12.830Z,2.12
2018-07-12T22:10:43.629Z,1.92
2018-07-12T22:13:13.745Z,2.75
2018-07-12T22:15:43.590Z,2.20
2018-07-12T22:18:13.802Z,2.05
2018-07-12T22:20:43.297Z,1.90
2018-07-12T22:23:12.786Z,1.87
2018-07-12T22:25:42.273Z,2.30
2018-07-12T22:28:11.849Z,1.90
2018-07-12T22:30:41.279Z,2.40
2018-07-12T22:33:11.354Z,1.87
2018-07-12T22:35:40.874Z,2.15
2018-07-12T22:38:10.420Z,2.02
2018-07-12T22:40:39.858Z,1.92
2018-07-12T22:43:09.262Z,1.87
2018-07-12T22:45:38.711Z,1.75
2018-07-12T22:48:08.476Z,1.70
2018-07-12T22:50:37.859Z,1.90
2018-07-12T22:53:07.627Z,1.60
2018-07-12T22:55:37.249Z,1.70
2018-07-12T22:58:06.760Z,1.85
2018-07-12T23:00:36.259Z,1.60
2018-07-12T23:03:05.914Z,1.60
2018-07-12T23:05:35.447Z,1.90
2018-07-12T23:08:04.964Z,1.60
2018-07-12T23:10:34.378Z,2.00
2018-07-12T23:13:04.000Z,1.85
2018-07-12T23:15:33.584Z,2.02
2018-07-12T23:18:03.689Z,1.67
2018-07-12T23:20:33.142Z,1.67
2018-07-12T23:23:02.633Z,1.90
2018-07-12T23:25:32.138Z,2.00
2018-07-12T23:28:01.456Z,2.00
2018-07-12T23:30:30.804Z,2.00
2018-07-12T23:33:00.365Z,1.98
2018-07-12T23:35:29.835Z,2.10
2018-07-12T23:37:59.193Z,1.90
2018-07-12T23:40:28.610Z,1.77
2018-07-12T23:42:57.989Z,2.02
2018-07-12T23:45:27.486Z,1.98
2018-07-12T23:47:56.904Z,1.90
2018-07-12T23:50:26.415Z,1.98
2018-07-12T23:52:55.762Z,1.80
2018-07-12T23:55:25.162Z,1.90
2018-07-12T23:57:54.528Z,2.10
